Olho d'Agua do Borges, Brazil
Current Conditions -  °F | °C
As of 1:00 AM on Thursday 29 Jan 2015 (Local Time) from SBJU Reporting Station
Clear Clear  
Wind Chill: 82°   Ceiling: Unl
Heat Index: 82°   Visibility: 6mi
Dew Point: 59°   Wind: 6mph
Humidity: 45%   Direction: 50°NE
Pressure: 29.94"   Gusts: NA
Location:  5.96°S, 37.71°W
Report Text: SBJU 290400Z 05005KT CAVOK 28/15 Q1014
Loading
Personal Weather Stations






























Interactive Weather Map New forecast layout! Learn more

10-Day Weather Forecast

Advertisements
Track Severe Weather on mobile